sensor_id;sensor_type;location;lat;lon;timestamp;pressure;altitude;pressure_sealevel;temperature;humidity
75855;BME280;64502;59.976;30.316;2023-05-10T00:01:04;102141.47;;;8.50;36.13
75855;BME280;64502;59.976;30.316;2023-05-10T00:03:29;102132.72;;;8.50;34.94
75855;BME280;64502;59.976;30.316;2023-05-10T00:05:54;102132.72;;;8.50;35.60
75855;BME280;64502;59.976;30.316;2023-05-10T00:08:20;102130.06;;;8.51;35.42
75855;BME280;64502;59.976;30.316;2023-05-10T00:10:45;102131.78;;;8.52;36.42
75855;BME280;64502;59.976;30.316;2023-05-10T00:13:11;102130.00;;;8.53;37.07
75855;BME280;64502;59.976;30.316;2023-05-10T00:15:36;102134.41;;;8.52;37.91
75855;BME280;64502;59.976;30.316;2023-05-10T00:18:02;102142.31;;;8.52;37.76
75855;BME280;64502;59.976;30.316;2023-05-10T00:20:27;102136.28;;;8.49;37.71
75855;BME280;64502;59.976;30.316;2023-05-10T00:22:52;102135.38;;;8.48;37.39
75855;BME280;64502;59.976;30.316;2023-05-10T00:25:18;102136.31;;;8.45;37.75
75855;BME280;64502;59.976;30.316;2023-05-10T00:27:43;102142.50;;;8.44;38.06
75855;BME280;64502;59.976;30.316;2023-05-10T00:30:09;102147.00;;;8.39;38.28
75855;BME280;64502;59.976;30.316;2023-05-10T00:32:35;102148.06;;;8.32;39.03
75855;BME280;64502;59.976;30.316;2023-05-10T00:35:00;102144.72;;;8.26;38.32
75855;BME280;64502;59.976;30.316;2023-05-10T00:37:25;102147.44;;;8.21;38.85
75855;BME280;64502;59.976;30.316;2023-05-10T00:39:51;102136.25;;;8.14;37.72
75855;BME280;64502;59.976;30.316;2023-05-10T00:42:16;102148.56;;;8.12;38.04
75855;BME280;64502;59.976;30.316;2023-05-10T00:44:42;102144.22;;;8.10;38.22
75855;BME280;64502;59.976;30.316;2023-05-10T00:47:08;102147.75;;;8.10;38.05
75855;BME280;64502;59.976;30.316;2023-05-10T00:49:34;102146.91;;;8.08;38.45
75855;BME280;64502;59.976;30.316;2023-05-10T00:52:00;102151.34;;;8.06;38.01
75855;BME280;64502;59.976;30.316;2023-05-10T00:54:27;102141.75;;;8.04;37.98
75855;BME280;64502;59.976;30.316;2023-05-10T00:56:52;102145.31;;;8.03;37.85
75855;BME280;64502;59.976;30.316;2023-05-10T00:59:19;102134.88;;;7.98;40.09
75855;BME280;64502;59.976;30.316;2023-05-10T01:01:45;102142.03;;;7.93;39.84
75855;BME280;64502;59.976;30.316;2023-05-10T01:04:14;102149.13;;;7.89;40.58
75855;BME280;64502;59.976;30.316;2023-05-10T01:06:41;102146.66;;;7.83;41.75
75855;BME280;64502;59.976;30.316;2023-05-10T01:09:06;102151.09;;;7.79;42.80
75855;BME280;64502;59.976;30.316;2023-05-10T01:11:36;102157.25;;;7.78;41.90
75855;BME280;64502;59.976;30.316;2023-05-10T01:14:03;102155.59;;;7.74;43.37
75855;BME280;64502;59.976;30.316;2023-05-10T01:16:32;102154.78;;;7.72;41.39
75855;BME280;64502;59.976;30.316;2023-05-10T01:19:00;102146.00;;;7.72;41.77
75855;BME280;64502;59.976;30.316;2023-05-10T01:21:45;102149.47;;;7.74;39.28
75855;BME280;64502;59.976;30.316;2023-05-10T01:30:20;102136.25;;;7.78;38.42
75855;BME280;64502;59.976;30.316;2023-05-10T01:33:21;102132.75;;;7.78;40.22
75855;BME280;64502;59.976;30.316;2023-05-10T01:36:06;102135.38;;;7.78;40.55
75855;BME280;64502;59.976;30.316;2023-05-10T01:38:53;102135.38;;;7.78;40.31
75855;BME280;64502;59.976;30.316;2023-05-10T01:41:33;102131.91;;;7.76;41.35
75855;BME280;64502;59.976;30.316;2023-05-10T01:46:37;102127.63;;;7.72;41.40
75855;BME280;64502;59.976;30.316;2023-05-10T01:49:08;102119.75;;;7.72;41.83
75855;BME280;64502;59.976;30.316;2023-05-10T01:51:45;102127.63;;;7.72;41.39
75855;BME280;64502;59.976;30.316;2023-05-10T01:54:13;102128.53;;;7.71;42.84
75855;BME280;64502;59.976;30.316;2023-05-10T01:56:40;102136.41;;;7.72;43.37
75855;BME280;64502;59.976;30.316;2023-05-10T01:59:12;102131.06;;;7.75;42.61
75855;BME280;64502;59.976;30.316;2023-05-10T02:01:40;102129.22;;;7.79;41.94
75855;BME280;64502;59.976;30.316;2023-05-10T02:04:07;102125.63;;;7.83;43.26
75855;BME280;64502;59.976;30.316;2023-05-10T02:06:34;102122.00;;;7.87;44.12
75855;BME280;64502;59.976;30.316;2023-05-10T02:09:01;102117.63;;;7.88;44.34
75855;BME280;64502;59.976;30.316;2023-05-10T02:11:28;102130.75;;;7.88;42.25
75855;BME280;64502;59.976;30.316;2023-05-10T02:13:55;102124.63;;;7.89;42.52
75855;BME280;64502;59.976;30.316;2023-05-10T02:16:24;102123.72;;;7.88;43.24
75855;BME280;64502;59.976;30.316;2023-05-10T02:18:52;102125.47;;;7.89;43.37
75855;BME280;64502;59.976;30.316;2023-05-10T02:21:19;102128.94;;;7.91;44.22
75855;BME280;64502;59.976;30.316;2023-05-10T02:23:45;102138.53;;;7.92;44.40
75855;BME280;64502;59.976;30.316;2023-05-10T02:26:12;102133.25;;;7.94;44.74
75855;BME280;64502;59.976;30.316;2023-05-10T02:28:40;102139.41;;;7.93;44.27
75855;BME280;64502;59.976;30.316;2023-05-10T02:31:06;102129.78;;;7.92;42.90
75855;BME280;64502;59.976;30.316;2023-05-10T02:33:33;102127.09;;;7.95;42.07
75855;BME280;64502;59.976;30.316;2023-05-10T02:36:01;102131.31;;;8.00;41.93
75855;BME280;64502;59.976;30.316;2023-05-10T02:38:28;102133.84;;;8.05;43.72
75855;BME280;64502;59.976;30.316;2023-05-10T02:40:54;102138.97;;;8.10;43.95
75855;BME280;64502;59.976;30.316;2023-05-10T02:43:22;102138.94;;;8.11;45.07
75855;BME280;64502;59.976;30.316;2023-05-10T02:45:48;102142.50;;;8.10;44.26
75855;BME280;64502;59.976;30.316;2023-05-10T02:48:15;102135.38;;;8.14;44.07
75855;BME280;64502;59.976;30.316;2023-05-10T02:50:43;102133.59;;;8.14;43.67
75855;BME280;64502;59.976;30.316;2023-05-10T02:53:14;102145.78;;;8.18;43.88
75855;BME280;64502;59.976;30.316;2023-05-10T02:55:40;102141.31;;;8.22;44.64
75855;BME280;64502;59.976;30.316;2023-05-10T02:58:08;102137.75;;;8.25;43.81
75855;BME280;64502;59.976;30.316;2023-05-10T03:00:34;102142.84;;;8.29;41.48
75855;BME280;64502;59.976;30.316;2023-05-10T03:03:01;102137.50;;;8.34;42.28
75855;BME280;64502;59.976;30.316;2023-05-10T03:05:27;102139.13;;;8.39;41.57
75855;BME280;64502;59.976;30.316;2023-05-10T03:07:52;102135.53;;;8.43;42.67
75855;BME280;64502;59.976;30.316;2023-05-10T03:10:19;102134.53;;;8.48;42.29
75855;BME280;64502;59.976;30.316;2023-05-10T03:12:52;102143.13;;;8.54;41.53
75855;BME280;64502;59.976;30.316;2023-05-10T03:15:37;102141.06;;;8.65;41.13
75855;BME280;64502;59.976;30.316;2023-05-10T03:18:33;102145.13;;;8.77;40.05
75855;BME280;64502;59.976;30.316;2023-05-10T03:21:03;102139.66;;;8.85;41.01
75855;BME280;64502;59.976;30.316;2023-05-10T03:23:35;102142.00;;;8.94;40.15
75855;BME280;64502;59.976;30.316;2023-05-10T03:26:05;102128.59;;;9.03;39.66
75855;BME280;64502;59.976;30.316;2023-05-10T03:28:34;102132.66;;;9.14;39.10
75855;BME280;64502;59.976;30.316;2023-05-10T03:31:00;102135.00;;;9.24;39.68
75855;BME280;64502;59.976;30.316;2023-05-10T03:33:25;102140.88;;;9.32;40.05
75855;BME280;64502;59.976;30.316;2023-05-10T03:35:51;102136.25;;;9.41;38.04
75855;BME280;64502;59.976;30.316;2023-05-10T03:38:17;102132.50;;;9.49;37.72
75855;BME280;64502;59.976;30.316;2023-05-10T03:40:42;102136.72;;;9.55;37.84
75855;BME280;64502;59.976;30.316;2023-05-10T03:43:07;102135.59;;;9.62;39.11
75855;BME280;64502;59.976;30.316;2023-05-10T03:45:33;102126.63;;;9.68;39.21
75855;BME280;64502;59.976;30.316;2023-05-10T03:47:58;102130.84;;;9.73;39.09
75855;BME280;64502;59.976;30.316;2023-05-10T03:50:24;102128.06;;;9.78;39.44
75855;BME280;64502;59.976;30.316;2023-05-10T03:52:50;102132.34;;;9.82;38.66
75855;BME280;64502;59.976;30.316;2023-05-10T03:55:15;102131.28;;;9.88;39.01
75855;BME280;64502;59.976;30.316;2023-05-10T03:57:42;102127.59;;;9.93;39.23
75855;BME280;64502;59.976;30.316;2023-05-10T04:00:07;102127.41;;;9.98;38.66
75855;BME280;64502;59.976;30.316;2023-05-10T04:02:33;102135.13;;;10.04;38.53
75855;BME280;64502;59.976;30.316;2023-05-10T04:04:59;102139.28;;;10.11;39.14
75855;BME280;64502;59.976;30.316;2023-05-10T04:07:24;102141.69;;;10.17;38.33
75855;BME280;64502;59.976;30.316;2023-05-10T04:09:49;102137.13;;;10.22;36.98
75855;BME280;64502;59.976;30.316;2023-05-10T04:12:15;102131.72;;;10.29;37.12
75855;BME280;64502;59.976;30.316;2023-05-10T04:14:40;102137.66;;;10.34;36.89
75855;BME280;64502;59.976;30.316;2023-05-10T04:17:06;102131.25;;;10.41;37.93
75855;BME280;64502;59.976;30.316;2023-05-10T04:19:31;102131.94;;;10.48;37.50
75855;BME280;64502;59.976;30.316;2023-05-10T04:21:58;102129.06;;;10.54;38.79
75855;BME280;64502;59.976;30.316;2023-05-10T04:24:23;102127.13;;;10.59;38.25
75855;BME280;64502;59.976;30.316;2023-05-10T04:26:49;102133.03;;;10.65;38.36
75855;BME280;64502;59.976;30.316;2023-05-10T04:29:14;102124.97;;;10.70;37.25
75855;BME280;64502;59.976;30.316;2023-05-10T04:31:39;102124.72;;;10.76;36.46
75855;BME280;64502;59.976;30.316;2023-05-10T04:34:05;102122.78;;;10.81;37.33
75855;BME280;64502;59.976;30.316;2023-05-10T04:36:31;102132.38;;;10.84;36.46
75855;BME280;64502;59.976;30.316;2023-05-10T04:39:00;102132.22;;;10.88;36.73
75855;BME280;64502;59.976;30.316;2023-05-10T04:41:25;102132.00;;;10.95;35.44
75855;BME280;64502;59.976;30.316;2023-05-10T04:43:51;102135.25;;;11.01;34.65
75855;BME280;64502;59.976;30.316;2023-05-10T04:46:16;102136.75;;;11.08;36.65
75855;BME280;64502;59.976;30.316;2023-05-10T04:48:41;102135.59;;;11.16;35.74
75855;BME280;64502;59.976;30.316;2023-05-10T04:51:07;102135.38;;;11.22;34.40
75855;BME280;64502;59.976;30.316;2023-05-10T04:53:33;102136.00;;;11.28;35.57
75855;BME280;64502;59.976;30.316;2023-05-10T04:55:58;102137.53;;;11.34;35.41
75855;BME280;64502;59.976;30.316;2023-05-10T04:58:24;102137.28;;;11.40;33.66
75855;BME280;64502;59.976;30.316;2023-05-10T05:00:49;102140.63;;;11.45;33.01
75855;BME280;64502;59.976;30.316;2023-05-10T05:03:16;102143.94;;;11.50;31.93
75855;BME280;64502;59.976;30.316;2023-05-10T05:05:41;102144.63;;;11.55;32.70
75855;BME280;64502;59.976;30.316;2023-05-10T05:08:07;102143.53;;;11.61;33.63
75855;BME280;64502;59.976;30.316;2023-05-10T05:10:32;102145.81;;;11.70;32.12
75855;BME280;64502;59.976;30.316;2023-05-10T05:12:58;102135.00;;;11.76;32.98
75855;BME280;64502;59.976;30.316;2023-05-10T05:15:23;102133.81;;;11.84;31.76
75855;BME280;64502;59.976;30.316;2023-05-10T05:17:49;102138.13;;;11.86;31.34
75855;BME280;64502;59.976;30.316;2023-05-10T05:20:14;102143.25;;;11.91;31.44
75855;BME280;64502;59.976;30.316;2023-05-10T05:22:39;102140.56;;;11.92;31.86
75855;BME280;64502;59.976;30.316;2023-05-10T05:25:05;102142.22;;;11.95;32.02
75855;BME280;64502;59.976;30.316;2023-05-10T05:27:32;102141.16;;;11.99;32.94
75855;BME280;64502;59.976;30.316;2023-05-10T05:29:59;102132.19;;;12.03;34.03
75855;BME280;64502;59.976;30.316;2023-05-10T05:32:25;102137.25;;;12.08;34.59
75855;BME280;64502;59.976;30.316;2023-05-10T05:34:51;102131.97;;;12.08;34.42
75855;BME280;64502;59.976;30.316;2023-05-10T05:37:17;102132.78;;;12.10;35.03
75855;BME280;64502;59.976;30.316;2023-05-10T05:39:44;102139.84;;;12.09;35.68
75855;BME280;64502;59.976;30.316;2023-05-10T05:42:11;102132.03;;;12.06;35.69
75855;BME280;64502;59.976;30.316;2023-05-10T05:44:37;102140.88;;;12.05;35.76
75855;BME280;64502;59.976;30.316;2023-05-10T05:47:02;102137.66;;;11.98;35.79
75855;BME280;64502;59.976;30.316;2023-05-10T05:49:28;102141.19;;;11.97;36.41
75855;BME280;64502;59.976;30.316;2023-05-10T05:51:54;102129.84;;;11.95;36.31
75855;BME280;64502;59.976;30.316;2023-05-10T05:54:19;102137.66;;;11.98;36.00
75855;BME280;64502;59.976;30.316;2023-05-10T05:56:45;102137.47;;;12.03;37.29
75855;BME280;64502;59.976;30.316;2023-05-10T05:59:11;102135.47;;;12.08;37.55
75855;BME280;64502;59.976;30.316;2023-05-10T06:01:36;102137.13;;;12.11;37.43
75855;BME280;64502;59.976;30.316;2023-05-10T06:04:02;102135.22;;;12.14;38.31
75855;BME280;64502;59.976;30.316;2023-05-10T06:06:28;102135.09;;;12.17;37.57
75855;BME280;64502;59.976;30.316;2023-05-10T06:08:53;102133.13;;;12.23;38.12
75855;BME280;64502;59.976;30.316;2023-05-10T06:11:19;102131.88;;;12.31;37.62
75855;BME280;64502;59.976;30.316;2023-05-10T06:13:46;102132.31;;;12.41;38.49
75855;BME280;64502;59.976;30.316;2023-05-10T06:16:12;102124.19;;;12.46;38.24
75855;BME280;64502;59.976;30.316;2023-05-10T06:18:38;102131.84;;;12.52;37.84
75855;BME280;64502;59.976;30.316;2023-05-10T06:21:03;102128.22;;;12.54;38.19
75855;BME280;64502;59.976;30.316;2023-05-10T06:23:29;102129.88;;;12.57;37.33
75855;BME280;64502;59.976;30.316;2023-05-10T06:25:55;102130.53;;;12.62;37.94
75855;BME280;64502;59.976;30.316;2023-05-10T06:28:20;102127.69;;;12.66;37.41
75855;BME280;64502;59.976;30.316;2023-05-10T06:30:46;102136.28;;;12.72;37.94
75855;BME280;64502;59.976;30.316;2023-05-10T06:33:11;102137.81;;;12.77;37.29
75855;BME280;64502;59.976;30.316;2023-05-10T06:35:37;102136.88;;;12.78;37.29
75855;BME280;64502;59.976;30.316;2023-05-10T06:38:02;102129.72;;;12.80;38.25
75855;BME280;64502;59.976;30.316;2023-05-10T06:40:27;102137.72;;;12.79;37.18
75855;BME280;64502;59.976;30.316;2023-05-10T06:42:53;102136.81;;;12.80;37.46
75855;BME280;64502;59.976;30.316;2023-05-10T06:45:19;102132.41;;;12.79;37.87
75855;BME280;64502;59.976;30.316;2023-05-10T06:47:44;102134.06;;;12.81;37.71
75855;BME280;64502;59.976;30.316;2023-05-10T06:50:10;102138.50;;;12.81;37.63
75855;BME280;64502;59.976;30.316;2023-05-10T06:52:36;102139.38;;;12.81;37.81
75855;BME280;64502;59.976;30.316;2023-05-10T06:55:03;102146.41;;;12.82;37.95
75855;BME280;64502;59.976;30.316;2023-05-10T06:57:29;102148.84;;;12.87;37.71
75855;BME280;64502;59.976;30.316;2023-05-10T06:59:55;102138.19;;;12.88;38.12
75855;BME280;64502;59.976;30.316;2023-05-10T07:02:21;102137.19;;;12.91;38.04
75855;BME280;64502;59.976;30.316;2023-05-10T07:04:48;102143.91;;;12.98;37.55
75855;BME280;64502;59.976;30.316;2023-05-10T07:07:14;102148.16;;;13.02;38.38
75855;BME280;64502;59.976;30.316;2023-05-10T07:09:39;102146.16;;;13.07;37.71
75855;BME280;64502;59.976;30.316;2023-05-10T07:12:05;102152.81;;;13.16;38.19
75855;BME280;64502;59.976;30.316;2023-05-10T07:14:30;102149.69;;;13.27;38.15
75855;BME280;64502;59.976;30.316;2023-05-10T07:16:56;102143.47;;;13.28;37.49
75855;BME280;64502;59.976;30.316;2023-05-10T07:19:21;102144.91;;;13.35;37.54
75855;BME280;64502;59.976;30.316;2023-05-10T07:21:47;102150.13;;;13.37;38.40
75855;BME280;64502;59.976;30.316;2023-05-10T07:24:13;102147.19;;;13.43;38.39
75855;BME280;64502;59.976;30.316;2023-05-10T07:26:38;102141.38;;;13.53;37.43
75855;BME280;64502;59.976;30.316;2023-05-10T07:29:04;102138.78;;;13.71;36.78
75855;BME280;64502;59.976;30.316;2023-05-10T07:31:29;102146.00;;;13.86;36.48
75855;BME280;64502;59.976;30.316;2023-05-10T07:33:54;102142.28;;;14.08;36.72
75855;BME280;64502;59.976;30.316;2023-05-10T07:36:20;102143.28;;;14.23;35.66
75855;BME280;64502;59.976;30.316;2023-05-10T07:38:46;102147.97;;;14.35;35.04
75855;BME280;64502;59.976;30.316;2023-05-10T07:41:12;102147.50;;;14.44;34.57
75855;BME280;64502;59.976;30.316;2023-05-10T07:43:37;102144.91;;;14.42;33.92
75855;BME280;64502;59.976;30.316;2023-05-10T07:46:03;102150.00;;;14.47;34.05
75855;BME280;64502;59.976;30.316;2023-05-10T07:48:29;102146.13;;;14.54;33.16
75855;BME280;64502;59.976;30.316;2023-05-10T07:50:54;102136.56;;;14.68;33.46
75855;BME280;64502;59.976;30.316;2023-05-10T07:53:19;102145.06;;;14.74;33.29
75855;BME280;64502;59.976;30.316;2023-05-10T07:55:50;102141.16;;;14.81;32.67
75855;BME280;64502;59.976;30.316;2023-05-10T07:58:16;102143.03;;;14.79;33.23
75855;BME280;64502;59.976;30.316;2023-05-10T08:00:41;102153.13;;;14.73;32.75
75855;BME280;64502;59.976;30.316;2023-05-10T08:03:06;102146.09;;;14.72;32.24
75855;BME280;64502;59.976;30.316;2023-05-10T08:05:32;102149.13;;;14.81;32.59
75855;BME280;64502;59.976;30.316;2023-05-10T08:07:57;102149.72;;;14.86;32.17
75855;BME280;64502;59.976;30.316;2023-05-10T08:10:24;102139.97;;;14.87;31.89
75855;BME280;64502;59.976;30.316;2023-05-10T08:12:50;102149.16;;;14.97;31.82
75855;BME280;64502;59.976;30.316;2023-05-10T08:15:15;102146.75;;;14.93;32.23
75855;BME280;64502;59.976;30.316;2023-05-10T08:17:40;102146.09;;;15.05;32.37
75855;BME280;64502;59.976;30.316;2023-05-10T08:20:07;102144.91;;;15.26;32.50
75855;BME280;64502;59.976;30.316;2023-05-10T08:22:33;102144.94;;;15.42;32.38
75855;BME280;64502;59.976;30.316;2023-05-10T08:24:58;102144.16;;;15.56;30.99
75855;BME280;64502;59.976;30.316;2023-05-10T08:27:23;102143.72;;;15.64;31.73
75855;BME280;64502;59.976;30.316;2023-05-10T08:29:49;102143.41;;;15.70;31.81
75855;BME280;64502;59.976;30.316;2023-05-10T08:32:14;102141.94;;;15.80;31.10
75855;BME280;64502;59.976;30.316;2023-05-10T08:34:40;102142.69;;;15.82;30.48
75855;BME280;64502;59.976;30.316;2023-05-10T08:37:05;102148.09;;;15.96;31.07
75855;BME280;64502;59.976;30.316;2023-05-10T08:39:34;102139.56;;;16.06;30.77
75855;BME280;64502;59.976;30.316;2023-05-10T08:42:01;102139.59;;;16.20;30.99
75855;BME280;64502;59.976;30.316;2023-05-10T08:44:27;102136.44;;;16.13;31.16
75855;BME280;64502;59.976;30.316;2023-05-10T08:46:54;102138.16;;;16.14;32.12
75855;BME280;64502;59.976;30.316;2023-05-10T08:49:20;102144.00;;;16.21;31.40
75855;BME280;64502;59.976;30.316;2023-05-10T08:51:54;102141.69;;;16.45;31.77
75855;BME280;64502;59.976;30.316;2023-05-10T08:54:21;102143.41;;;16.60;31.84
75855;BME280;64502;59.976;30.316;2023-05-10T08:56:47;102144.19;;;16.77;32.00
75855;BME280;64502;59.976;30.316;2023-05-10T08:59:12;102142.47;;;17.04;32.08
75855;BME280;64502;59.976;30.316;2023-05-10T09:01:40;102136.19;;;17.20;31.79
75855;BME280;64502;59.976;30.316;2023-05-10T09:04:06;102138.06;;;17.32;32.09
75855;BME280;64502;59.976;30.316;2023-05-10T09:06:32;102130.78;;;17.48;31.17
75855;BME280;64502;59.976;30.316;2023-05-10T09:08:58;102142.25;;;17.78;30.62
75855;BME280;64502;59.976;30.316;2023-05-10T09:11:25;102135.25;;;17.89;30.12
75855;BME280;64502;59.976;30.316;2023-05-10T09:13:52;102130.22;;;18.12;30.16
75855;BME280;64502;59.976;30.316;2023-05-10T09:16:17;102130.22;;;18.25;30.22
75855;BME280;64502;59.976;30.316;2023-05-10T09:18:43;102132.81;;;18.39;29.70
75855;BME280;64502;59.976;30.316;2023-05-10T09:21:09;102124.16;;;18.48;29.60
75855;BME280;64502;59.976;30.316;2023-05-10T09:23:35;102131.97;;;18.64;29.72
75855;BME280;64502;59.976;30.316;2023-05-10T09:26:04;102123.41;;;18.72;29.57
75855;BME280;64502;59.976;30.316;2023-05-10T09:28:34;102131.84;;;18.66;29.69
75855;BME280;64502;59.976;30.316;2023-05-10T09:31:14;102123.19;;;18.62;29.45
75855;BME280;64502;59.976;30.316;2023-05-10T09:33:44;102127.69;;;18.61;29.47
75855;BME280;64502;59.976;30.316;2023-05-10T09:36:10;102127.56;;;18.63;28.86
75855;BME280;64502;59.976;30.316;2023-05-10T09:38:46;102123.09;;;18.76;28.07
75855;BME280;64502;59.976;30.316;2023-05-10T09:41:20;102116.78;;;18.90;28.43
75855;BME280;64502;59.976;30.316;2023-05-10T09:43:46;102122.03;;;18.79;27.46
75855;BME280;64502;59.976;30.316;2023-05-10T09:46:12;102113.16;;;18.78;26.86
75855;BME280;64502;59.976;30.316;2023-05-10T09:48:43;102115.72;;;18.93;27.63
75855;BME280;64502;59.976;30.316;2023-05-10T09:51:09;102119.00;;;19.09;26.51
75855;BME280;64502;59.976;30.316;2023-05-10T09:53:35;102125.81;;;19.26;26.39
75855;BME280;64502;59.976;30.316;2023-05-10T09:56:01;102120.38;;;19.51;26.12
75855;BME280;64502;59.976;30.316;2023-05-10T09:58:26;102117.75;;;19.76;25.64
75855;BME280;64502;59.976;30.316;2023-05-10T10:00:52;102111.78;;;19.83;25.83
75855;BME280;64502;59.976;30.316;2023-05-10T10:03:20;102113.72;;;20.05;25.37
75855;BME280;64502;59.976;30.316;2023-05-10T10:05:46;102119.47;;;20.23;25.00
75855;BME280;64502;59.976;30.316;2023-05-10T10:08:13;102121.25;;;20.47;24.13
75855;BME280;64502;59.976;30.316;2023-05-10T10:10:39;102106.66;;;20.73;24.21
75855;BME280;64502;59.976;30.316;2023-05-10T10:13:10;102111.75;;;21.21;23.36
75855;BME280;64502;59.976;30.316;2023-05-10T10:15:35;102113.72;;;21.42;22.21
75855;BME280;64502;59.976;30.316;2023-05-10T10:18:01;102098.69;;;21.71;21.96
75855;BME280;64502;59.976;30.316;2023-05-10T10:20:29;102101.16;;;21.75;21.73
75855;BME280;64502;59.976;30.316;2023-05-10T10:22:54;102095.41;;;22.00;21.59
75855;BME280;64502;59.976;30.316;2023-05-10T10:25:21;102109.75;;;22.22;21.98
75855;BME280;64502;59.976;30.316;2023-05-10T10:30:48;102115.13;;;22.22;21.40
75855;BME280;64502;59.976;30.316;2023-05-10T10:36:02;102105.53;;;22.29;21.18
75855;BME280;64502;59.976;30.316;2023-05-10T10:38:54;102100.75;;;22.32;21.16
75855;BME280;64502;59.976;30.316;2023-05-10T10:57:19;102087.25;;;24.88;19.19
75855;BME280;64502;59.976;30.316;2023-05-10T10:59:47;102089.34;;;24.94;18.34
75855;BME280;64502;59.976;30.316;2023-05-10T11:02:34;102083.56;;;24.89;18.83
75855;BME280;64502;59.976;30.316;2023-05-10T11:07:53;102084.84;;;24.85;18.76
75855;BME280;64502;59.976;30.316;2023-05-10T11:10:23;102077.19;;;25.08;18.83
75855;BME280;64502;59.976;30.316;2023-05-10T11:15:17;102071.31;;;25.76;18.57
75855;BME280;64502;59.976;30.316;2023-05-10T11:17:43;102082.34;;;25.01;16.87
75855;BME280;64502;59.976;30.316;2023-05-10T11:20:09;102087.16;;;24.80;17.09
75855;BME280;64502;59.976;30.316;2023-05-10T11:22:51;102072.63;;;25.36;17.92
75855;BME280;64502;59.976;30.316;2023-05-10T11:25:17;102078.25;;;24.97;16.54
75855;BME280;64502;59.976;30.316;2023-05-10T11:27:43;102068.91;;;25.19;16.46
75855;BME280;64502;59.976;30.316;2023-05-10T11:30:10;102059.91;;;25.46;17.26
75855;BME280;64502;59.976;30.316;2023-05-10T11:32:38;102057.13;;;25.92;16.29
75855;BME280;64502;59.976;30.316;2023-05-10T11:35:11;102062.75;;;26.51;16.42
75855;BME280;64502;59.976;30.316;2023-05-10T11:37:40;102056.00;;;26.29;15.48
75855;BME280;64502;59.976;30.316;2023-05-10T11:40:09;102048.25;;;26.60;14.88
75855;BME280;64502;59.976;30.316;2023-05-10T11:42:38;102048.22;;;26.52;15.69
75855;BME280;64502;59.976;30.316;2023-05-10T11:45:04;102051.03;;;26.50;14.99
75855;BME280;64502;59.976;30.316;2023-05-10T11:47:29;102048.53;;;26.91;14.83
75855;BME280;64502;59.976;30.316;2023-05-10T11:49:55;102041.00;;;27.19;14.05
75855;BME280;64502;59.976;30.316;2023-05-10T11:52:20;102041.75;;;27.62;14.09
75855;BME280;64502;59.976;30.316;2023-05-10T11:54:53;102042.56;;;28.12;14.50
75855;BME280;64502;59.976;30.316;2023-05-10T11:57:19;102040.22;;;28.09;13.65
75855;BME280;64502;59.976;30.316;2023-05-10T11:59:46;102035.78;;;28.24;13.35
75855;BME280;64502;59.976;30.316;2023-05-10T12:02:15;102044.28;;;28.21;13.86
75855;BME280;64502;59.976;30.316;2023-05-10T12:04:41;102034.94;;;28.24;13.09
75855;BME280;64502;59.976;30.316;2023-05-10T12:07:07;102037.19;;;27.87;13.03
75855;BME280;64502;59.976;30.316;2023-05-10T12:09:33;102036.81;;;27.74;13.05
75855;BME280;64502;59.976;30.316;2023-05-10T12:11:59;102022.06;;;27.77;12.84
75855;BME280;64502;59.976;30.316;2023-05-10T12:14:24;102026.34;;;28.60;13.29
75855;BME280;64502;59.976;30.316;2023-05-10T12:16:50;102021.50;;;28.30;12.93
75855;BME280;64502;59.976;30.316;2023-05-10T12:19:19;102027.81;;;28.15;13.13
75855;BME280;64502;59.976;30.316;2023-05-10T12:21:48;102016.59;;;28.18;13.71
75855;BME280;64502;59.976;30.316;2023-05-10T12:24:14;102023.69;;;28.35;13.40
75855;BME280;64502;59.976;30.316;2023-05-10T12:26:43;102022.97;;;28.58;13.43
75855;BME280;64502;59.976;30.316;2023-05-10T12:29:18;102026.47;;;28.66;13.35
75855;BME280;64502;59.976;30.316;2023-05-10T12:31:58;102021.81;;;28.52;12.75
75855;BME280;64502;59.976;30.316;2023-05-10T12:34:32;102028.81;;;28.30;13.32
75855;BME280;64502;59.976;30.316;2023-05-10T12:36:59;102021.19;;;28.17;12.97
75855;BME280;64502;59.976;30.316;2023-05-10T12:39:24;102018.81;;;28.70;12.95
75855;BME280;64502;59.976;30.316;2023-05-10T12:41:50;102012.41;;;28.94;12.32
75855;BME280;64502;59.976;30.316;2023-05-10T12:44:16;102004.66;;;29.83;12.15
75855;BME280;64502;59.976;30.316;2023-05-10T12:46:42;102012.66;;;30.44;12.00
75855;BME280;64502;59.976;30.316;2023-05-10T12:49:07;102008.63;;;30.69;12.12
75855;BME280;64502;59.976;30.316;2023-05-10T12:51:33;102008.69;;;30.17;11.89
75855;BME280;64502;59.976;30.316;2023-05-10T12:53:58;102005.00;;;29.57;12.88
75855;BME280;64502;59.976;30.316;2023-05-10T12:56:24;102009.13;;;29.76;12.64
75855;BME280;64502;59.976;30.316;2023-05-10T12:58:49;102007.00;;;30.01;12.79
75855;BME280;64502;59.976;30.316;2023-05-10T13:01:15;101999.63;;;30.24;12.09
75855;BME280;64502;59.976;30.316;2023-05-10T13:03:40;101999.53;;;30.33;12.09
75855;BME280;64502;59.976;30.316;2023-05-10T13:06:06;101999.81;;;30.23;12.13
75855;BME280;64502;59.976;30.316;2023-05-10T13:08:32;101996.53;;;30.42;11.91
75855;BME280;64502;59.976;30.316;2023-05-10T13:10:59;102008.06;;;30.59;12.18
75855;BME280;64502;59.976;30.316;2023-05-10T13:13:25;102005.97;;;30.76;11.81
75855;BME280;64502;59.976;30.316;2023-05-10T13:15:51;101998.81;;;30.90;11.75
75855;BME280;64502;59.976;30.316;2023-05-10T13:18:16;101999.38;;;31.43;11.31